sensor_id;sensor_type;location;lat;lon;timestamp;temperature;humidity
46490;DHT22;32204;49.160;8.580;2024-03-29T00:00:33;9.50;1.00
46490;DHT22;32204;49.160;8.580;2024-03-29T00:02:59;9.50;1.00
46490;DHT22;32204;49.160;8.580;2024-03-29T00:05:25;9.60;1.00
46490;DHT22;32204;49.160;8.580;2024-03-29T00:07:50;9.70;1.00
46490;DHT22;32204;49.160;8.580;2024-03-29T00:10:16;9.60;1.00
46490;DHT22;32204;49.160;8.580;2024-03-29T00:12:42;9.60;1.00
46490;DHT22;32204;49.160;8.580;2024-03-29T00:15:07;9.70;1.00
46490;DHT22;32204;49.160;8.580;2024-03-29T00:17:33;9.70;1.00
46490;DHT22;32204;49.160;8.580;2024-03-29T00:19:59;9.70;1.00
46490;DHT22;32204;49.160;8.580;2024-03-29T00:22:24;9.70;1.00
46490;DHT22;32204;49.160;8.580;2024-03-29T00:24:50;9.70;1.00
46490;DHT22;32204;49.160;8.580;2024-03-29T00:27:15;9.70;1.00
46490;DHT22;32204;49.160;8.580;2024-03-29T00:29:41;9.70;1.00
46490;DHT22;32204;49.160;8.580;2024-03-29T00:32:08;9.70;1.00
46490;DHT22;32204;49.160;8.580;2024-03-29T00:34:33;9.70;1.00
46490;DHT22;32204;49.160;8.580;2024-03-29T00:36:59;9.70;1.00
46490;DHT22;32204;49.160;8.580;2024-03-29T00:39:24;9.70;1.00
46490;DHT22;32204;49.160;8.580;2024-03-29T00:41:50;9.80;1.00
46490;DHT22;32204;49.160;8.580;2024-03-29T00:44:16;9.80;1.00
46490;DHT22;32204;49.160;8.580;2024-03-29T00:46:41;9.90;1.00
46490;DHT22;32204;49.160;8.580;2024-03-29T00:49:07;9.90;1.00
46490;DHT22;32204;49.160;8.580;2024-03-29T00:51:32;9.90;1.00
46490;DHT22;32204;49.160;8.580;2024-03-29T00:53:58;10.00;1.00
46490;DHT22;32204;49.160;8.580;2024-03-29T00:56:23;10.00;1.00
46490;DHT22;32204;49.160;8.580;2024-03-29T00:58:49;10.00;1.00
46490;DHT22;32204;49.160;8.580;2024-03-29T01:01:14;10.00;1.00
46490;DHT22;32204;49.160;8.580;2024-03-29T01:03:40;10.00;1.00
46490;DHT22;32204;49.160;8.580;2024-03-29T01:06:05;10.00;1.00
46490;DHT22;32204;49.160;8.580;2024-03-29T01:08:31;10.10;1.00
46490;DHT22;32204;49.160;8.580;2024-03-29T01:10:56;10.10;1.00
46490;DHT22;32204;49.160;8.580;2024-03-29T01:13:22;10.10;1.00
46490;DHT22;32204;49.160;8.580;2024-03-29T01:15:48;10.10;1.00
46490;DHT22;32204;49.160;8.580;2024-03-29T01:18:13;10.10;1.00
46490;DHT22;32204;49.160;8.580;2024-03-29T01:20:39;10.10;1.00
46490;DHT22;32204;49.160;8.580;2024-03-29T01:23:04;10.20;1.00
46490;DHT22;32204;49.160;8.580;2024-03-29T01:25:30;10.20;1.00
46490;DHT22;32204;49.160;8.580;2024-03-29T01:27:56;10.20;1.00
46490;DHT22;32204;49.160;8.580;2024-03-29T01:30:22;10.20;1.00
46490;DHT22;32204;49.160;8.580;2024-03-29T01:32:48;10.10;1.00
46490;DHT22;32204;49.160;8.580;2024-03-29T01:35:13;10.10;1.00
46490;DHT22;32204;49.160;8.580;2024-03-29T01:37:39;10.10;1.00
46490;DHT22;32204;49.160;8.580;2024-03-29T01:40:05;10.10;1.00
46490;DHT22;32204;49.160;8.580;2024-03-29T01:42:31;10.10;1.00
46490;DHT22;32204;49.160;8.580;2024-03-29T01:44:56;10.10;1.00
46490;DHT22;32204;49.160;8.580;2024-03-29T01:47:22;10.10;1.00
46490;DHT22;32204;49.160;8.580;2024-03-29T01:49:47;10.10;1.00
46490;DHT22;32204;49.160;8.580;2024-03-29T01:52:14;10.10;1.00
46490;DHT22;32204;49.160;8.580;2024-03-29T01:54:42;10.10;1.00
46490;DHT22;32204;49.160;8.580;2024-03-29T01:57:08;10.20;1.00
46490;DHT22;32204;49.160;8.580;2024-03-29T01:59:34;10.20;1.00
46490;DHT22;32204;49.160;8.580;2024-03-29T02:02:00;10.20;1.00
46490;DHT22;32204;49.160;8.580;2024-03-29T02:04:26;10.20;1.00
46490;DHT22;32204;49.160;8.580;2024-03-29T02:06:52;10.20;1.00
46490;DHT22;32204;49.160;8.580;2024-03-29T02:09:18;10.20;1.00
46490;DHT22;32204;49.160;8.580;2024-03-29T02:11:43;10.20;1.00
46490;DHT22;32204;49.160;8.580;2024-03-29T02:14:09;10.20;1.00
46490;DHT22;32204;49.160;8.580;2024-03-29T02:16:34;10.20;1.00
46490;DHT22;32204;49.160;8.580;2024-03-29T02:19:00;10.20;1.00
46490;DHT22;32204;49.160;8.580;2024-03-29T02:21:26;10.20;1.00
46490;DHT22;32204;49.160;8.580;2024-03-29T02:24:11;10.20;1.00
46490;DHT22;32204;49.160;8.580;2024-03-29T02:26:37;10.20;1.00
46490;DHT22;32204;49.160;8.580;2024-03-29T02:29:07;10.20;1.00
46490;DHT22;32204;49.160;8.580;2024-03-29T02:31:33;10.30;1.00
46490;DHT22;32204;49.160;8.580;2024-03-29T02:33:58;10.30;1.00
46490;DHT22;32204;49.160;8.580;2024-03-29T02:36:24;10.30;1.00
46490;DHT22;32204;49.160;8.580;2024-03-29T02:38:50;10.20;1.00
46490;DHT22;32204;49.160;8.580;2024-03-29T02:41:15;10.30;1.00
46490;DHT22;32204;49.160;8.580;2024-03-29T02:43:41;10.30;1.00
46490;DHT22;32204;49.160;8.580;2024-03-29T02:46:07;10.30;1.00
46490;DHT22;32204;49.160;8.580;2024-03-29T02:48:32;10.20;1.00
46490;DHT22;32204;49.160;8.580;2024-03-29T02:50:58;10.30;1.00
46490;DHT22;32204;49.160;8.580;2024-03-29T02:53:23;10.30;1.00
46490;DHT22;32204;49.160;8.580;2024-03-29T02:55:49;10.30;1.00
46490;DHT22;32204;49.160;8.580;2024-03-29T02:58:15;10.30;1.00
46490;DHT22;32204;49.160;8.580;2024-03-29T03:00:40;10.40;1.00
46490;DHT22;32204;49.160;8.580;2024-03-29T03:03:06;10.40;1.00
46490;DHT22;32204;49.160;8.580;2024-03-29T03:05:31;10.50;1.00
46490;DHT22;32204;49.160;8.580;2024-03-29T03:07:58;10.50;1.00
46490;DHT22;32204;49.160;8.580;2024-03-29T03:10:48;10.40;1.00
46490;DHT22;32204;49.160;8.580;2024-03-29T03:13:29;10.50;1.00
46490;DHT22;32204;49.160;8.580;2024-03-29T03:15:54;10.50;1.00
46490;DHT22;32204;49.160;8.580;2024-03-29T03:18:20;10.50;1.00
46490;DHT22;32204;49.160;8.580;2024-03-29T03:20:56;10.60;1.00
46490;DHT22;32204;49.160;8.580;2024-03-29T03:23:25;10.60;1.00
46490;DHT22;32204;49.160;8.580;2024-03-29T03:25:54;10.60;1.00
46490;DHT22;32204;49.160;8.580;2024-03-29T03:28:20;10.60;1.00
46490;DHT22;32204;49.160;8.580;2024-03-29T03:30:47;10.60;1.00
46490;DHT22;32204;49.160;8.580;2024-03-29T03:33:13;10.60;1.00
46490;DHT22;32204;49.160;8.580;2024-03-29T03:35:38;10.50;1.00
46490;DHT22;32204;49.160;8.580;2024-03-29T03:38:04;10.60;1.00
46490;DHT22;32204;49.160;8.580;2024-03-29T03:40:30;10.60;1.00
46490;DHT22;32204;49.160;8.580;2024-03-29T03:42:55;10.50;1.00
46490;DHT22;32204;49.160;8.580;2024-03-29T03:45:21;10.50;1.00
46490;DHT22;32204;49.160;8.580;2024-03-29T03:47:47;10.40;50.20
46490;DHT22;32204;49.160;8.580;2024-03-29T03:50:13;10.30;33.40
46490;DHT22;32204;49.160;8.580;2024-03-29T03:52:39;10.20;86.60
46490;DHT22;32204;49.160;8.580;2024-03-29T03:55:04;10.20;98.90
46490;DHT22;32204;49.160;8.580;2024-03-29T03:57:30;10.20;97.30
46490;DHT22;32204;49.160;8.580;2024-03-29T03:59:56;10.20;87.00
46490;DHT22;32204;49.160;8.580;2024-03-29T04:02:21;10.20;72.40
46490;DHT22;32204;49.160;8.580;2024-03-29T04:04:47;10.20;62.30
46490;DHT22;32204;49.160;8.580;2024-03-29T04:07:13;10.20;89.70
46490;DHT22;32204;49.160;8.580;2024-03-29T04:09:39;10.10;1.00
46490;DHT22;32204;49.160;8.580;2024-03-29T04:12:05;10.10;1.00
46490;DHT22;32204;49.160;8.580;2024-03-29T04:14:30;10.00;1.00
46490;DHT22;32204;49.160;8.580;2024-03-29T04:16:56;10.00;1.00
46490;DHT22;32204;49.160;8.580;2024-03-29T04:19:21;10.00;1.00
46490;DHT22;32204;49.160;8.580;2024-03-29T04:21:47;9.90;1.00
46490;DHT22;32204;49.160;8.580;2024-03-29T04:24:12;9.80;1.00
46490;DHT22;32204;49.160;8.580;2024-03-29T04:26:39;9.70;1.00
46490;DHT22;32204;49.160;8.580;2024-03-29T04:29:05;9.60;1.00
46490;DHT22;32204;49.160;8.580;2024-03-29T04:31:31;9.50;51.90
46490;DHT22;32204;49.160;8.580;2024-03-29T04:33:56;9.50;60.40
46490;DHT22;32204;49.160;8.580;2024-03-29T04:36:22;9.60;1.00
46490;DHT22;32204;49.160;8.580;2024-03-29T04:38:47;9.80;99.90
46490;DHT22;32204;49.160;8.580;2024-03-29T04:41:13;9.80;61.00
46490;DHT22;32204;49.160;8.580;2024-03-29T04:43:40;9.70;26.80
46490;DHT22;32204;49.160;8.580;2024-03-29T04:46:13;9.60;86.20
46490;DHT22;32204;49.160;8.580;2024-03-29T04:48:39;9.70;99.90
46490;DHT22;32204;49.160;8.580;2024-03-29T04:51:09;9.80;95.30
46490;DHT22;32204;49.160;8.580;2024-03-29T04:53:38;9.80;70.20
46490;DHT22;32204;49.160;8.580;2024-03-29T04:56:04;9.80;1.00
46490;DHT22;32204;49.160;8.580;2024-03-29T04:58:31;9.90;1.00
46490;DHT22;32204;49.160;8.580;2024-03-29T05:00:57;9.90;1.00
46490;DHT22;32204;49.160;8.580;2024-03-29T05:03:23;10.00;1.00
46490;DHT22;32204;49.160;8.580;2024-03-29T05:05:52;10.00;1.00
46490;DHT22;32204;49.160;8.580;2024-03-29T05:08:19;10.20;1.00
46490;DHT22;32204;49.160;8.580;2024-03-29T05:10:46;10.20;1.00
46490;DHT22;32204;49.160;8.580;2024-03-29T05:13:11;10.30;1.00
46490;DHT22;32204;49.160;8.580;2024-03-29T05:15:37;10.30;1.00
46490;DHT22;32204;49.160;8.580;2024-03-29T05:18:03;10.20;1.00
46490;DHT22;32204;49.160;8.580;2024-03-29T05:20:29;10.20;1.00
46490;DHT22;32204;49.160;8.580;2024-03-29T05:22:55;10.30;1.00
46490;DHT22;32204;49.160;8.580;2024-03-29T05:25:20;10.40;1.00
46490;DHT22;32204;49.160;8.580;2024-03-29T05:27:46;10.30;1.00
46490;DHT22;32204;49.160;8.580;2024-03-29T05:30:12;10.30;1.00
46490;DHT22;32204;49.160;8.580;2024-03-29T05:32:39;10.30;1.00
46490;DHT22;32204;49.160;8.580;2024-03-29T05:35:05;10.30;1.00
46490;DHT22;32204;49.160;8.580;2024-03-29T05:37:30;10.30;1.00
46490;DHT22;32204;49.160;8.580;2024-03-29T05:39:56;10.40;1.00
46490;DHT22;32204;49.160;8.580;2024-03-29T05:42:30;10.50;1.00
46490;DHT22;32204;49.160;8.580;2024-03-29T05:44:55;10.40;1.00
46490;DHT22;32204;49.160;8.580;2024-03-29T05:47:21;10.40;1.00
46490;DHT22;32204;49.160;8.580;2024-03-29T05:49:50;10.60;1.00
46490;DHT22;32204;49.160;8.580;2024-03-29T05:52:16;10.60;1.00
46490;DHT22;32204;49.160;8.580;2024-03-29T05:54:45;10.60;1.00
46490;DHT22;32204;49.160;8.580;2024-03-29T05:57:11;10.60;1.00
46490;DHT22;32204;49.160;8.580;2024-03-29T05:59:37;10.60;1.00
46490;DHT22;32204;49.160;8.580;2024-03-29T06:02:04;10.70;1.00
46490;DHT22;32204;49.160;8.580;2024-03-29T06:04:29;10.70;1.00
46490;DHT22;32204;49.160;8.580;2024-03-29T06:07:07;10.80;1.00
46490;DHT22;32204;49.160;8.580;2024-03-29T06:09:33;10.90;1.00
46490;DHT22;32204;49.160;8.580;2024-03-29T06:11:59;10.90;1.00
46490;DHT22;32204;49.160;8.580;2024-03-29T06:14:25;10.90;1.00
46490;DHT22;32204;49.160;8.580;2024-03-29T06:17:10;10.90;1.00
46490;DHT22;32204;49.160;8.580;2024-03-29T06:19:48;10.90;1.00
46490;DHT22;32204;49.160;8.580;2024-03-29T06:22:15;11.00;1.00
46490;DHT22;32204;49.160;8.580;2024-03-29T06:24:41;11.00;1.00
46490;DHT22;32204;49.160;8.580;2024-03-29T06:27:09;11.00;1.00
46490;DHT22;32204;49.160;8.580;2024-03-29T06:29:34;11.00;1.00
46490;DHT22;32204;49.160;8.580;2024-03-29T06:32:00;11.00;1.00
46490;DHT22;32204;49.160;8.580;2024-03-29T06:34:25;11.10;1.00
46490;DHT22;32204;49.160;8.580;2024-03-29T06:36:51;11.10;1.00
46490;DHT22;32204;49.160;8.580;2024-03-29T06:39:16;11.20;1.00
46490;DHT22;32204;49.160;8.580;2024-03-29T06:41:42;11.20;1.00
46490;DHT22;32204;49.160;8.580;2024-03-29T06:44:08;11.20;1.00
46490;DHT22;32204;49.160;8.580;2024-03-29T06:46:33;11.20;1.00
46490;DHT22;32204;49.160;8.580;2024-03-29T06:49:00;11.30;1.00
46490;DHT22;32204;49.160;8.580;2024-03-29T06:51:26;11.30;1.00
46490;DHT22;32204;49.160;8.580;2024-03-29T06:53:52;11.40;1.00
46490;DHT22;32204;49.160;8.580;2024-03-29T06:56:17;11.40;1.00
46490;DHT22;32204;49.160;8.580;2024-03-29T06:58:43;11.50;1.00
46490;DHT22;32204;49.160;8.580;2024-03-29T07:01:09;11.60;1.00
46490;DHT22;32204;49.160;8.580;2024-03-29T07:03:35;11.70;1.00
46490;DHT22;32204;49.160;8.580;2024-03-29T07:06:00;11.70;1.00
46490;DHT22;32204;49.160;8.580;2024-03-29T07:08:26;11.70;1.00
46490;DHT22;32204;49.160;8.580;2024-03-29T07:11:01;11.70;1.00
46490;DHT22;32204;49.160;8.580;2024-03-29T07:13:28;11.80;1.00
46490;DHT22;32204;49.160;8.580;2024-03-29T07:15:55;11.80;1.00
46490;DHT22;32204;49.160;8.580;2024-03-29T07:18:20;11.90;1.00
46490;DHT22;32204;49.160;8.580;2024-03-29T07:20:46;11.90;1.00
46490;DHT22;32204;49.160;8.580;2024-03-29T07:23:12;11.90;1.00
46490;DHT22;32204;49.160;8.580;2024-03-29T07:25:38;11.90;1.00
46490;DHT22;32204;49.160;8.580;2024-03-29T07:28:04;12.00;1.00
46490;DHT22;32204;49.160;8.580;2024-03-29T07:30:30;12.00;1.00
46490;DHT22;32204;49.160;8.580;2024-03-29T07:32:56;12.00;1.00
46490;DHT22;32204;49.160;8.580;2024-03-29T07:35:21;11.90;1.00
46490;DHT22;32204;49.160;8.580;2024-03-29T07:37:47;11.80;22.90
46490;DHT22;32204;49.160;8.580;2024-03-29T07:40:15;11.80;45.40
46490;DHT22;32204;49.160;8.580;2024-03-29T07:42:40;11.70;95.50
46490;DHT22;32204;49.160;8.580;2024-03-29T07:45:06;11.50;1.00
46490;DHT22;32204;49.160;8.580;2024-03-29T07:47:32;11.50;45.10
46490;DHT22;32204;49.160;8.580;2024-03-29T07:49:58;11.50;99.90
46490;DHT22;32204;49.160;8.580;2024-03-29T07:52:23;11.40;99.90
46490;DHT22;32204;49.160;8.580;2024-03-29T07:54:49;11.40;99.90
46490;DHT22;32204;49.160;8.580;2024-03-29T07:57:15;11.30;91.30
46490;DHT22;32204;49.160;8.580;2024-03-29T07:59:42;11.30;99.90
46490;DHT22;32204;49.160;8.580;2024-03-29T08:02:08;11.30;1.00
46490;DHT22;32204;49.160;8.580;2024-03-29T08:04:34;11.30;1.00
46490;DHT22;32204;49.160;8.580;2024-03-29T08:07:00;11.30;1.00
46490;DHT22;32204;49.160;8.580;2024-03-29T08:09:26;11.20;99.90
46490;DHT22;32204;49.160;8.580;2024-03-29T08:11:52;11.10;19.50
46490;DHT22;32204;49.160;8.580;2024-03-29T08:14:17;11.00;1.00
46490;DHT22;32204;49.160;8.580;2024-03-29T08:16:44;10.90;99.90
46490;DHT22;32204;49.160;8.580;2024-03-29T08:19:10;10.90;99.90
46490;DHT22;32204;49.160;8.580;2024-03-29T08:21:36;11.00;99.90
46490;DHT22;32204;49.160;8.580;2024-03-29T08:24:02;10.90;99.90
46490;DHT22;32204;49.160;8.580;2024-03-29T08:26:29;11.00;1.00
46490;DHT22;32204;49.160;8.580;2024-03-29T08:28:56;10.90;1.00
46490;DHT22;32204;49.160;8.580;2024-03-29T08:31:21;10.80;99.90
46490;DHT22;32204;49.160;8.580;2024-03-29T08:33:47;10.90;1.00
46490;DHT22;32204;49.160;8.580;2024-03-29T08:36:13;10.90;99.90
46490;DHT22;32204;49.160;8.580;2024-03-29T08:38:39;11.00;99.90
46490;DHT22;32204;49.160;8.580;2024-03-29T08:41:08;11.00;99.90
46490;DHT22;32204;49.160;8.580;2024-03-29T08:43:34;11.00;1.00
46490;DHT22;32204;49.160;8.580;2024-03-29T08:45:59;10.90;1.00
46490;DHT22;32204;49.160;8.580;2024-03-29T08:48:26;10.90;1.00
46490;DHT22;32204;49.160;8.580;2024-03-29T08:50:52;10.90;99.90
46490;DHT22;32204;49.160;8.580;2024-03-29T08:53:18;11.00;1.00
46490;DHT22;32204;49.160;8.580;2024-03-29T08:55:46;10.90;1.00
46490;DHT22;32204;49.160;8.580;2024-03-29T08:58:12;10.70;99.90
46490;DHT22;32204;49.160;8.580;2024-03-29T09:00:37;10.70;99.90
46490;DHT22;32204;49.160;8.580;2024-03-29T09:03:03;10.60;1.00
46490;DHT22;32204;49.160;8.580;2024-03-29T09:05:29;10.50;48.80
46490;DHT22;32204;49.160;8.580;2024-03-29T09:07:55;10.50;99.90
46490;DHT22;32204;49.160;8.580;2024-03-29T09:10:22;10.50;1.00
46490;DHT22;32204;49.160;8.580;2024-03-29T09:12:49;10.50;1.00
46490;DHT22;32204;49.160;8.580;2024-03-29T09:15:15;10.40;99.90
46490;DHT22;32204;49.160;8.580;2024-03-29T09:17:44;10.50;1.00
46490;DHT22;32204;49.160;8.580;2024-03-29T09:20:10;10.60;1.00
46490;DHT22;32204;49.160;8.580;2024-03-29T09:22:36;10.80;99.90
46490;DHT22;32204;49.160;8.580;2024-03-29T09:25:01;11.10;99.90
46490;DHT22;32204;49.160;8.580;2024-03-29T09:27:29;11.30;1.00
46490;DHT22;32204;49.160;8.580;2024-03-29T09:29:55;11.40;99.90
46490;DHT22;32204;49.160;8.580;2024-03-29T09:32:23;11.50;1.00
46490;DHT22;32204;49.160;8.580;2024-03-29T09:34:49;11.60;99.90
46490;DHT22;32204;49.160;8.580;2024-03-29T09:37:15;11.70;99.90
46490;DHT22;32204;49.160;8.580;2024-03-29T09:39:41;11.70;42.40
46490;DHT22;32204;49.160;8.580;2024-03-29T09:42:07;11.70;99.90
46490;DHT22;32204;49.160;8.580;2024-03-29T09:44:35;11.60;1.00
46490;DHT22;32204;49.160;8.580;2024-03-29T09:47:03;11.60;99.90
46490;DHT22;32204;49.160;8.580;2024-03-29T09:49:31;11.80;1.00
46490;DHT22;32204;49.160;8.580;2024-03-29T09:52:01;11.90;1.00
46490;DHT22;32204;49.160;8.580;2024-03-29T09:54:30;12.20;1.00
46490;DHT22;32204;49.160;8.580;2024-03-29T09:56:59;12.20;1.00
46490;DHT22;32204;49.160;8.580;2024-03-29T09:59:25;12.20;1.00
46490;DHT22;32204;49.160;8.580;2024-03-29T10:01:55;12.30;99.90
46490;DHT22;32204;49.160;8.580;2024-03-29T10:04:23;12.30;99.90
46490;DHT22;32204;49.160;8.580;2024-03-29T10:06:50;12.40;1.00
46490;DHT22;32204;49.160;8.580;2024-03-29T10:09:19;12.50;1.00
46490;DHT22;32204;49.160;8.580;2024-03-29T10:11:46;12.70;1.00
46490;DHT22;32204;49.160;8.580;2024-03-29T10:14:12;12.70;1.00
46490;DHT22;32204;49.160;8.580;2024-03-29T10:16:38;12.80;22.30
46490;DHT22;32204;49.160;8.580;2024-03-29T10:19:04;12.90;3.40
46490;DHT22;32204;49.160;8.580;2024-03-29T10:21:32;13.00;99.90
46490;DHT22;32204;49.160;8.580;2024-03-29T10:23:57;13.10;99.90
46490;DHT22;32204;49.160;8.580;2024-03-29T10:26:23;13.30;99.90
46490;DHT22;32204;49.160;8.580;2024-03-29T10:28:49;13.40;99.90
46490;DHT22;32204;49.160;8.580;2024-03-29T10:31:14;13.40;99.90
46490;DHT22;32204;49.160;8.580;2024-03-29T10:33:43;13.60;99.90
46490;DHT22;32204;49.160;8.580;2024-03-29T10:36:14;13.80;99.90
46490;DHT22;32204;49.160;8.580;2024-03-29T10:38:40;13.90;99.90
46490;DHT22;32204;49.160;8.580;2024-03-29T10:41:06;14.00;99.90
46490;DHT22;32204;49.160;8.580;2024-03-29T10:43:33;14.10;99.90
46490;DHT22;32204;49.160;8.580;2024-03-29T10:46:00;14.20;76.50
46490;DHT22;32204;49.160;8.580;2024-03-29T10:48:30;14.20;1.00
46490;DHT22;32204;49.160;8.580;2024-03-29T10:50:58;14.20;1.00
46490;DHT22;32204;49.160;8.580;2024-03-29T10:53:25;14.30;1.00
46490;DHT22;32204;49.160;8.580;2024-03-29T10:55:54;14.30;99.90
46490;DHT22;32204;49.160;8.580;2024-03-29T10:58:22;14.40;1.00
46490;DHT22;32204;49.160;8.580;2024-03-29T11:00:53;14.50;99.90
46490;DHT22;32204;49.160;8.580;2024-03-29T11:03:48;14.50;99.90
46490;DHT22;32204;49.160;8.580;2024-03-29T11:06:17;14.60;99.90
46490;DHT22;32204;49.160;8.580;2024-03-29T11:08:45;14.80;99.90
46490;DHT22;32204;49.160;8.580;2024-03-29T11:11:13;14.80;1.00
46490;DHT22;32204;49.160;8.580;2024-03-29T11:13:52;14.90;10.30
46490;DHT22;32204;49.160;8.580;2024-03-29T11:16:18;15.00;99.90
46490;DHT22;32204;49.160;8.580;2024-03-29T11:18:46;15.00;99.90
46490;DHT22;32204;49.160;8.580;2024-03-29T11:21:14;15.10;88.70
46490;DHT22;32204;49.160;8.580;2024-03-29T11:23:48;15.20;99.90
46490;DHT22;32204;49.160;8.580;2024-03-29T11:26:14;15.10;99.90
46490;DHT22;32204;49.160;8.580;2024-03-29T11:28:40;15.00;99.90
46490;DHT22;32204;49.160;8.580;2024-03-29T11:31:08;15.00;1.00
46490;DHT22;32204;49.160;8.580;2024-03-29T11:36:12;15.00;99.90
46490;DHT22;32204;49.160;8.580;2024-03-29T11:38:38;15.20;1.00
46490;DHT22;32204;49.160;8.580;2024-03-29T11:41:04;15.30;1.00
46490;DHT22;32204;49.160;8.580;2024-03-29T11:43:34;15.40;99.90
46490;DHT22;32204;49.160;8.580;2024-03-29T11:46:02;15.40;99.90
46490;DHT22;32204;49.160;8.580;2024-03-29T11:48:29;15.30;1.00
46490;DHT22;32204;49.160;8.580;2024-03-29T11:50:56;15.40;1.00
46490;DHT22;32204;49.160;8.580;2024-03-29T11:53:23;15.40;1.00
46490;DHT22;32204;49.160;8.580;2024-03-29T11:55:48;15.30;1.00
46490;DHT22;32204;49.160;8.580;2024-03-29T11:58:19;15.10;83.00
46490;DHT22;32204;49.160;8.580;2024-03-29T12:00:45;15.00;99.90
46490;DHT22;32204;49.160;8.580;2024-03-29T12:03:13;14.90;99.90
46490;DHT22;32204;49.160;8.580;2024-03-29T12:05:39;15.00;1.00
46490;DHT22;32204;49.160;8.580;2024-03-29T12:08:05;15.00;1.00
46490;DHT22;32204;49.160;8.580;2024-03-29T12:10:31;15.00;99.90
46490;DHT22;32204;49.160;8.580;2024-03-29T12:12:57;14.90;1.00
46490;DHT22;32204;49.160;8.580;2024-03-29T12:15:27;14.80;1.00
46490;DHT22;32204;49.160;8.580;2024-03-29T12:18:01;14.70;1.00
46490;DHT22;32204;49.160;8.580;2024-03-29T12:20:34;14.70;99.90
46490;DHT22;32204;49.160;8.580;2024-03-29T12:23:05;14.70;99.90
46490;DHT22;32204;49.160;8.580;2024-03-29T12:25:33;14.70;99.90
46490;DHT22;32204;49.160;8.580;2024-03-29T12:27:59;14.80;99.90
46490;DHT22;32204;49.160;8.580;2024-03-29T12:30:26;14.90;99.90
46490;DHT22;32204;49.160;8.580;2024-03-29T12:33:08;15.00;99.90
46490;DHT22;32204;49.160;8.580;2024-03-29T12:35:37;15.10;95.80
46490;DHT22;32204;49.160;8.580;2024-03-29T12:38:04;15.20;16.70
46490;DHT22;32204;49.160;8.580;2024-03-29T12:40:31;15.20;99.90
46490;DHT22;32204;49.160;8.580;2024-03-29T12:43:07;15.10;1.00
46490;DHT22;32204;49.160;8.580;2024-03-29T12:45:39;15.00;62.20
46490;DHT22;32204;49.160;8.580;2024-03-29T12:48:14;15.00;99.90
46490;DHT22;32204;49.160;8.580;2024-03-29T12:50:41;15.20;25.60
46490;DHT22;32204;49.160;8.580;2024-03-29T12:53:09;15.40;1.00
46490;DHT22;32204;49.160;8.580;2024-03-29T12:55:35;15.40;99.90
46490;DHT22;32204;49.160;8.580;2024-03-29T12:58:02;15.40;1.00
46490;DHT22;32204;49.160;8.580;2024-03-29T13:00:30;15.40;1.00
46490;DHT22;32204;49.160;8.580;2024-03-29T13:02:56;15.40;1.00
46490;DHT22;32204;49.160;8.580;2024-03-29T13:05:22;15.30;99.90
46490;DHT22;32204;49.160;8.580;2024-03-29T13:07:47;15.30;99.90
46490;DHT22;32204;49.160;8.580;2024-03-29T13:10:13;15.20;99.90
46490;DHT22;32204;49.160;8.580;2024-03-29T13:12:44;15.10;99.90
46490;DHT22;32204;49.160;8.580;2024-03-29T13:15:23;15.20;1.00
46490;DHT22;32204;49.160;8.580;2024-03-29T13:17:55;15.20;99.90
46490;DHT22;32204;49.160;8.580;2024-03-29T13:20:23;15.20;1.00
46490;DHT22;32204;49.160;8.580;2024-03-29T13:22:49;15.00;99.90
46490;DHT22;32204;49.160;8.580;2024-03-29T13:25:16;15.00;7.50
46490;DHT22;32204;49.160;8.580;2024-03-29T13:27:43;15.00;1.00
46490;DHT22;32204;49.160;8.580;2024-03-29T13:30:11;14.80;99.90
46490;DHT22;32204;49.160;8.580;2024-03-29T13:32:40;14.70;99.90
46490;DHT22;32204;49.160;8.580;2024-03-29T13:35:07;14.60;1.00
46490;DHT22;32204;49.160;8.580;2024-03-29T13:37:40;14.40;1.00
46490;DHT22;32204;49.160;8.580;2024-03-29T13:40:10;14.10;99.90
46490;DHT22;32204;49.160;8.580;2024-03-29T13:42:36;13.80;99.90
46490;DHT22;32204;49.160;8.580;2024-03-29T13:45:04;13.60;99.90
46490;DHT22;32204;49.160;8.580;2024-03-29T13:47:41;13.60;99.90
46490;DHT22;32204;49.160;8.580;2024-03-29T13:50:08;13.50;99.90
46490;DHT22;32204;49.160;8.580;2024-03-29T13:52:34;13.50;99.90
46490;DHT22;32204;49.160;8.580;2024-03-29T13:55:01;13.70;99.90
46490;DHT22;32204;49.160;8.580;2024-03-29T13:57:28;13.70;99.90
46490;DHT22;32204;49.160;8.580;2024-03-29T13:59:53;13.70;99.90
46490;DHT22;32204;49.160;8.580;2024-03-29T14:02:19;13.60;99.90
46490;DHT22;32204;49.160;8.580;2024-03-29T14:04:46;13.60;99.90
46490;DHT22;32204;49.160;8.580;2024-03-29T14:07:13;13.50;99.90
46490;DHT22;32204;49.160;8.580;2024-03-29T14:09:43;13.70;99.90
46490;DHT22;32204;49.160;8.580;2024-03-29T14:12:09;13.60;99.90
46490;DHT22;32204;49.160;8.580;2024-03-29T14:14:35;13.60;99.90
46490;DHT22;32204;49.160;8.580;2024-03-29T14:17:02;13.50;99.90
46490;DHT22;32204;49.160;8.580;2024-03-29T14:19:33;13.40;99.90
46490;DHT22;32204;49.160;8.580;2024-03-29T14:22:00;13.40;99.90
46490;DHT22;32204;49.160;8.580;2024-03-29T14:24:25;13.40;99.90
46490;DHT22;32204;49.160;8.580;2024-03-29T14:26:52;13.40;99.90
46490;DHT22;32204;49.160;8.580;2024-03-29T14:29:18;13.30;99.90
46490;DHT22;32204;49.160;8.580;2024-03-29T14:31:47;13.40;99.90
46490;DHT22;32204;49.160;8.580;2024-03-29T14:34:13;13.40;99.90
46490;DHT22;32204;49.160;8.580;2024-03-29T14:36:38;13.50;99.90
46490;DHT22;32204;49.160;8.580;2024-03-29T14:39:04;13.50;99.90
46490;DHT22;32204;49.160;8.580;2024-03-29T14:41:29;13.50;99.90
46490;DHT22;32204;49.160;8.580;2024-03-29T14:43:56;13.50;99.90
46490;DHT22;32204;49.160;8.580;2024-03-29T14:46:22;13.50;99.90
46490;DHT22;32204;49.160;8.580;2024-03-29T14:48:48;13.40;99.90
46490;DHT22;32204;49.160;8.580;2024-03-29T14:51:15;13.40;99.90
46490;DHT22;32204;49.160;8.580;2024-03-29T14:53:41;13.40;99.90
46490;DHT22;32204;49.160;8.580;2024-03-29T14:56:13;13.30;99.90
46490;DHT22;32204;49.160;8.580;2024-03-29T14:58:38;13.20;99.90
46490;DHT22;32204;49.160;8.580;2024-03-29T15:01:05;13.40;99.90
46490;DHT22;32204;49.160;8.580;2024-03-29T15:03:31;13.40;99.90
46490;DHT22;32204;49.160;8.580;2024-03-29T15:05:56;13.40;99.90
46490;DHT22;32204;49.160;8.580;2024-03-29T15:08:22;13.50;99.90
46490;DHT22;32204;49.160;8.580;2024-03-29T15:10:56;13.60;99.90
46490;DHT22;32204;49.160;8.580;2024-03-29T15:13:22;13.80;99.90
46490;DHT22;32204;49.160;8.580;2024-03-29T15:15:55;13.90;99.90
46490;DHT22;32204;49.160;8.580;2024-03-29T15:18:21;13.90;99.90
46490;DHT22;32204;49.160;8.580;2024-03-29T15:20:57;14.00;99.90
46490;DHT22;32204;49.160;8.580;2024-03-29T15:23:23;14.00;99.90
46490;DHT22;32204;49.160;8.580;2024-03-29T15:25:57;13.90;99.90
46490;DHT22;32204;49.160;8.580;2024-03-29T15:28:25;13.80;99.90
46490;DHT22;32204;49.160;8.580;2024-03-29T15:31:13;13.80;99.90
46490;DHT22;32204;49.160;8.580;2024-03-29T15:33:39;13.90;99.90
46490;DHT22;32204;49.160;8.580;2024-03-29T15:36:05;13.90;99.90
46490;DHT22;32204;49.160;8.580;2024-03-29T15:38:32;13.90;99.90
46490;DHT22;32204;49.160;8.580;2024-03-29T15:40:58;13.80;99.90
46490;DHT22;32204;49.160;8.580;2024-03-29T15:43:24;13.80;99.90